Observation data for Olton on 05/23/2019      Previous  Date  Next       Current Mesonet Observations  Soil Data  Daily Summary Page  Observations in Plain Language
KONS 230500Z 14012KT 20/12 A2982 RMK A01 T02040118  RH  059%=      5-min Rain = 0
KONS 230505Z 14013KT 21/12 A2982 RMK A01 T02050124  RH  061%=      5-min Rain = 0
KONS 230510Z 14013KT 21/13 A2982 RMK A01 T02060128  RH  062%=      5-min Rain = 0
KONS 230515Z 15014KT 21/13 A2982 RMK A01 T02080132  RH  063%=      5-min Rain = 0
KONS 230520Z 15015KT 21/14 A2982 RMK A01 T02100136  RH  064%=      5-min Rain = 0
KONS 230525Z 15015G20KT 21/14 A2982 RMK A01 T02110141  RH  066%=      5-min Rain = 0
KONS 230530Z 15015KT 21/15 A2982 RMK A01 T02120147  RH  068%=      5-min Rain = 0
KONS 230535Z 15015KT 21/15 A2982 RMK A01 T02140150  RH  069%=      5-min Rain = 0
KONS 230540Z 15014KT 21/15 A2982 RMK A01 T02140153  RH  070%=      5-min Rain = 0
KONS 230545Z 15014KT 22/16 A2982 RMK A01 T02150156  RH  071%=      5-min Rain = 0
KONS 230550Z 15014G20KT 22/16 A2982 RMK A01 T02160160  RH  072%=      5-min Rain = 0
KONS 230555Z 15015KT 22/16 A2982 RMK A01 T02170162  RH  073%=      5-min Rain = 0
KONS 230600Z 15014KT 22/16 A2982 RMK A01 T02180163  RH  073%=      5-min Rain = 0
KONS 230605Z 15014KT 22/16 A2983 RMK A01 T02170164  RH  073%=      5-min Rain = 0
KONS 230610Z 15015G22KT 22/17 A2983 RMK A01 T02170165  RH  074%=      5-min Rain = 0
KONS 230615Z 15015G21KT 22/17 A2983 RMK A01 T02170167  RH  075%=      5-min Rain = 0
KONS 230620Z 15015KT 22/17 A2983 RMK A01 T02170168  RH  075%=      5-min Rain = 0
KONS 230625Z 15015G20KT 22/17 A2983 RMK A01 T02170169  RH  076%=      5-min Rain = 0
KONS 230630Z 15016G22KT 22/17 A2983 RMK A01 T02180170  RH  076%=      5-min Rain = 0
KONS 230635Z 15016G21KT 22/17 A2983 RMK A01 T02180171  RH  077%=      5-min Rain = 0
KONS 230640Z 16017G22KT 22/17 A2983 RMK A01 T02180172  RH  077%=      5-min Rain = 0
KONS 230645Z 16016G22KT 22/17 A2984 RMK A01 T02180173  RH  077%=      5-min Rain = 0
KONS 230650Z 16016G21KT 22/17 A2984 RMK A01 T02180174  RH  078%=      5-min Rain = 0
KONS 230655Z 16016KT 22/18 A2984 RMK A01 T02170175  RH  079%=      5-min Rain = 0
KONS 230700Z 16015G20KT 22/18 A2984 RMK A01 T02160176  RH  080%=      5-min Rain = 0
KONS 230705Z 16016G21KT 22/18 A2984 RMK A01 T02160176  RH  080%=      5-min Rain = 0
KONS 230710Z 16016KT 22/18 A2983 RMK A01 T02160177  RH  080%=      5-min Rain = 0
KONS 230715Z 15014KT 22/18 A2984 RMK A01 T02150177  RH  081%=      5-min Rain = 0
KONS 230720Z 15014KT 21/18 A2984 RMK A01 T02130177  RH  082%=      5-min Rain = 0
KONS 230725Z 15015KT 21/18 A2984 RMK A01 T02130178  RH  082%=      5-min Rain = 0
KONS 230730Z 15014KT 21/18 A2984 RMK A01 T02120178  RH  083%=      5-min Rain = 0
KONS 230735Z 15014KT 21/18 A2984 RMK A01 T02120179  RH  084%=      5-min Rain = 0
KONS 230740Z 15013KT 21/18 A2984 RMK A01 T02100179  RH  084%=      5-min Rain = 0
KONS 230745Z 15013KT 21/18 A2984 RMK A01 T02110180  RH  085%=      5-min Rain = 0
KONS 230750Z 15014KT 21/18 A2984 RMK A01 T02120181  RH  085%=      5-min Rain = 0
KONS 230755Z 15013KT 21/18 A2984 RMK A01 T02130182  RH  084%=      5-min Rain = 0
KONS 230800Z 15013G19KT 21/18 A2984 RMK A01 T02140182  RH  084%=      5-min Rain = 0
KONS 230805Z 15015G21KT 22/18 A2984 RMK A01 T02150183  RH  084%=      5-min Rain = 0
KONS 230810Z 15015G20KT 22/18 A2984 RMK A01 T02150184  RH  084%=      5-min Rain = 0
KONS 230815Z 15015KT 22/18 A2984 RMK A01 T02160184  RH  084%=      5-min Rain = 0
KONS 230820Z 15014KT 22/18 A2984 RMK A01 T02150184  RH  085%=      5-min Rain = 0
KONS 230825Z 15016G21KT 22/19 A2984 RMK A01 T02160185  RH  085%=      5-min Rain = 0
KONS 230830Z 15016KT 22/19 A2984 RMK A01 T02160185  RH  085%=      5-min Rain = 0
KONS 230835Z 15015G22KT 22/19 A2984 RMK A01 T02160186  RH  085%=      5-min Rain = 0
KONS 230840Z 15017KT 22/19 A2984 RMK A01 T02170186  RH  085%=      5-min Rain = 0
KONS 230845Z 15015KT 22/19 A2984 RMK A01 T02170186  RH  085%=      5-min Rain = 0
KONS 230850Z 15016G21KT 22/19 A2984 RMK A01 T02170186  RH  085%=      5-min Rain = 0
KONS 230855Z 15017G23KT 22/19 A2984 RMK A01 T02170186  RH  085%=      5-min Rain = 0
KONS 230900Z 15016G21KT 22/19 A2984 RMK A01 T02180186  RH  085%=      5-min Rain = 0
KONS 230905Z 15015G20KT 22/19 A2985 RMK A01 T02180187  RH  085%=      5-min Rain = 0
KONS 230910Z 15015KT 22/19 A2985 RMK A01 T02180187  RH  085%=      5-min Rain = 0
KONS 230915Z 15015KT 22/19 A2985 RMK A01 T02180187  RH  085%=      5-min Rain = 0
KONS 230920Z 15014KT 22/19 A2985 RMK A01 T02170187  RH  085%=      5-min Rain = 0
KONS 230925Z 15013G18KT 22/19 A2985 RMK A01 T02170187  RH  085%=      5-min Rain = 0
KONS 230930Z 15014KT 22/19 A2985 RMK A01 T02170187  RH  085%=      5-min Rain = 0
KONS 230935Z 15014KT 22/19 A2986 RMK A01 T02170187  RH  085%=      5-min Rain = 0
KONS 230940Z 15015KT 22/19 A2985 RMK A01 T02170187  RH  085%=      5-min Rain = 0
KONS 230945Z 15013KT 22/19 A2985 RMK A01 T02170187  RH  085%=      5-min Rain = 0
KONS 230950Z 15013G18KT 22/19 A2985 RMK A01 T02170187  RH  085%=      5-min Rain = 0
KONS 230955Z 15013KT 22/19 A2986 RMK A01 T02170186  RH  085%=      5-min Rain = 0
KONS 231000Z 15013KT 22/19 A2986 RMK A01 T02170186  RH  085%=      5-min Rain = 0
KONS 231005Z 15012KT 22/19 A2986 RMK A01 T02170186  RH  085%=      5-min Rain = 0
KONS 231010Z 15012KT 22/19 A2986 RMK A01 T02170187  RH  085%=      5-min Rain = 0
KONS 231015Z 15014G19KT 22/19 A2986 RMK A01 T02180187  RH  085%=      5-min Rain = 0
KONS 231020Z 15013KT 22/19 A2986 RMK A01 T02180187  RH  085%=      5-min Rain = 0
KONS 231025Z 16014G19KT 22/19 A2986 RMK A01 T02180187  RH  085%=      5-min Rain = 0
KONS 231030Z 15014KT 22/19 A2986 RMK A01 T02180187  RH  085%=      5-min Rain = 0
KONS 231035Z 15012KT 22/19 A2986 RMK A01 T02180187  RH  085%=      5-min Rain = 0
KONS 231040Z 15013G19KT 22/19 A2986 RMK A01 T02180187  RH  085%=      5-min Rain = 0
KONS 231045Z 15012KT 22/19 A2986 RMK A01 T02180187  RH  085%=      5-min Rain = 0
KONS 231050Z 15011KT 22/19 A2986 RMK A01 T02180187  RH  085%=      5-min Rain = 0
KONS 231055Z 15012G18KT 22/19 A2986 RMK A01 T02180188  RH  085%=      5-min Rain = 0
KONS 231100Z 15012KT 22/19 A2986 RMK A01 T02190188  RH  085%=      5-min Rain = 0
KONS 231105Z 15012KT 22/19 A2986 RMK A01 T02180189  RH  085%=      5-min Rain = 0
KONS 231110Z 15013KT 22/19 A2986 RMK A01 T02180189  RH  086%=      5-min Rain = 0
KONS 231115Z 15012KT 22/19 A2986 RMK A01 T02190190  RH  086%=      5-min Rain = 0
KONS 231120Z 14013KT 22/19 A2986 RMK A01 T02190190  RH  086%=      5-min Rain = 0
KONS 231125Z 14012KT 22/19 A2986 RMK A01 T02190190  RH  086%=      5-min Rain = 0
KONS 231130Z 14011KT 22/19 A2986 RMK A01 T02180190  RH  086%=      5-min Rain = 0
KONS 231135Z 14011KT 22/19 A2986 RMK A01 T02180191  RH  087%=      5-min Rain = 0
KONS 231140Z 14011KT 22/19 A2986 RMK A01 T02180191  RH  087%=      5-min Rain = 0
KONS 231145Z 13013G19KT 22/19 A2986 RMK A01 T02180191  RH  087%=      5-min Rain = 0
KONS 231150Z 14012G17KT 22/19 A2986 RMK A01 T02180191  RH  087%=      5-min Rain = 0
KONS 231155Z 14014KT 22/19 A2986 RMK A01 T02180191  RH  087%=      5-min Rain = 0
KONS 231200Z 14012KT 22/19 A2986 RMK A01 T02180191  RH  087%=      5-min Rain = 0
KONS 231205Z 14012G17KT 22/19 A2986 RMK A01 T02170191  RH  087%=      5-min Rain = 0
KONS 231210Z 14010KT 22/19 A2987 RMK A01 T02170191  RH  087%=      5-min Rain = 0
KONS 231215Z 14012KT 22/19 A2987 RMK A01 T02160191  RH  088%=      5-min Rain = 0
KONS 231220Z 13011KT 22/19 A2987 RMK A01 T02160190  RH  088%=      5-min Rain = 0
KONS 231225Z 13013KT 22/19 A2987 RMK A01 T02150190  RH  088%=      5-min Rain = 0
KONS 231230Z 13013G18KT 22/19 A2987 RMK A01 T02150190  RH  088%=      5-min Rain = 0
KONS 231235Z 13013KT 22/19 A2987 RMK A01 T02150191  RH  088%=      5-min Rain = 0
KONS 231240Z 13013KT 21/19 A2987 RMK A01 T02140190  RH  088%=      5-min Rain = 0
KONS 231245Z 14012KT 21/19 A2987 RMK A01 T02140190  RH  089%=      5-min Rain = 0
KONS 231250Z 13012KT 21/19 A2987 RMK A01 T02130191  RH  089%=      5-min Rain = 0
KONS 231255Z 14013KT 21/19 A2987 RMK A01 T02130191  RH  089%=      5-min Rain = 0
KONS 231300Z 14014KT 21/19 A2987 RMK A01 T02130191  RH  089%=      5-min Rain = 0
KONS 231305Z 14014KT 21/19 A2988 RMK A01 T02130191  RH  089%=      5-min Rain = 0
KONS 231310Z 14013KT 21/19 A2988 RMK A01 T02130191  RH  089%=      5-min Rain = 0
KONS 231315Z 14013KT 21/19 A2988 RMK A01 T02140191  RH  089%=      5-min Rain = 0
KONS 231320Z 14014KT 21/19 A2988 RMK A01 T02140191  RH  089%=      5-min Rain = 0
KONS 231325Z 14014KT 21/19 A2988 RMK A01 T02140191  RH  089%=      5-min Rain = 0
KONS 231330Z 14014KT 22/19 A2988 RMK A01 T02150191  RH  089%=      5-min Rain = 0
KONS 231335Z 15013KT 22/19 A2988 RMK A01 T02160192  RH  089%=      5-min Rain = 0
KONS 231340Z 15015G21KT 22/19 A2988 RMK A01 T02170192  RH  088%=      5-min Rain = 0
KONS 231345Z 15016G21KT 22/19 A2988 RMK A01 T02200193  RH  087%=      5-min Rain = 0
KONS 231350Z 15017KT 22/19 A2988 RMK A01 T02220192  RH  086%=      5-min Rain = 0
KONS 231355Z 16015G21KT 22/19 A2988 RMK A01 T02220192  RH  085%=      5-min Rain = 0
KONS 231400Z 15015G23KT 22/19 A2988 RMK A01 T02240193  RH  085%=      5-min Rain = 0
KONS 231405Z 16016G22KT 23/19 A2988 RMK A01 T02260193  RH  084%=      5-min Rain = 0
KONS 231410Z 16017G22KT 23/19 A2988 RMK A01 T02280194  RH  083%=      5-min Rain = 0
KONS 231415Z 16017G25KT 23/20 A2988 RMK A01 T02300195  RH  083%=      5-min Rain = 0
KONS 231420Z 16018G27KT 23/20 A2988 RMK A01 T02340196  RH  081%=      5-min Rain = 0
KONS 231425Z 16019G25KT 24/20 A2988 RMK A01 T02350195  RH  080%=      5-min Rain = 0
KONS 231430Z 16019G25KT 24/20 A2988 RMK A01 T02350195  RH  081%=      5-min Rain = 0
KONS 231435Z 16019G26KT 24/20 A2988 RMK A01 T02360195  RH  080%=      5-min Rain = 0
KONS 231440Z 16022G28KT 24/20 A2988 RMK A01 T02390195  RH  079%=      5-min Rain = 0
KONS 231445Z 16019G27KT 24/20 A2988 RMK A01 T02410196  RH  078%=      5-min Rain = 0
KONS 231450Z 17021G28KT 24/20 A2988 RMK A01 T02420195  RH  077%=      5-min Rain = 0
KONS 231455Z 17022G28KT 24/19 A2988 RMK A01 T02430194  RH  076%=      5-min Rain = 0
KONS 231500Z 17021G28KT 24/19 A2988 RMK A01 T02440194  RH  076%=      5-min Rain = 0
KONS 231505Z 16020G27KT 25/20 A2988 RMK A01 T02490196  RH  075%=      5-min Rain = 0
KONS 231510Z 17021G29KT 25/20 A2988 RMK A01 T02510195  RH  073%=      5-min Rain = 0
KONS 231515Z 17022KT 25/19 A2988 RMK A01 T02500193  RH  073%=      5-min Rain = 0
KONS 231520Z 17021G28KT 26/19 A2988 RMK A01 T02560194  RH  071%=      5-min Rain = 0
KONS 231525Z 16023G30KT 26/19 A2988 RMK A01 T02560193  RH  070%=      5-min Rain = 0
KONS 231530Z 16022G29KT 26/19 A2988 RMK A01 T02560192  RH  070%=      5-min Rain = 0
KONS 231535Z 16021G27KT 26/19 A2988 RMK A01 T02580193  RH  069%=      5-min Rain = 0
KONS 231540Z 17021G26KT 26/19 A2988 RMK A01 T02610193  RH  068%=      5-min Rain = 0
KONS 231545Z 16022G29KT 26/19 A2988 RMK A01 T02580191  RH  068%=      5-min Rain = 0
KONS 231550Z 17022G29KT 26/19 A2988 RMK A01 T02590191  RH  068%=      5-min Rain = 0
KONS 231555Z 17022G29KT 26/19 A2988 RMK A01 T02570190  RH  068%=      5-min Rain = 0
KONS 231600Z 17023G29KT 26/19 A2988 RMK A01 T02560189  RH  068%=      5-min Rain = 0
KONS 231605Z 17022G29KT 26/19 A2987 RMK A01 T02560189  RH  068%=      5-min Rain = 0
KONS 231610Z 17021G26KT 26/19 A2987 RMK A01 T02570189  RH  068%=      5-min Rain = 0
KONS 231615Z 16021G26KT 26/19 A2987 RMK A01 T02630189  RH  065%=      5-min Rain = 0
KONS 231620Z 16021G29KT 27/19 A2987 RMK A01 T02670191  RH  065%=      5-min Rain = 0
KONS 231625Z 16023G30KT 26/19 A2987 RMK A01 T02640187  RH  065%=      5-min Rain = 0
KONS 231630Z 17021G28KT 27/19 A2988 RMK A01 T02660189  RH  064%=      5-min Rain = 0
KONS 231635Z 17019G27KT 27/19 A2988 RMK A01 T02690189  RH  063%=      5-min Rain = 0
KONS 231640Z 17022G28KT 27/19 A2988 RMK A01 T02730186  RH  060%=      5-min Rain = 0
KONS 231645Z 16022G28KT 27/18 A2988 RMK A01 T02720184  RH  060%=      5-min Rain = 0
KONS 231650Z 17020G27KT 28/19 A2988 RMK A01 T02770186  RH  059%=      5-min Rain = 0
KONS 231655Z 17022G30KT 28/18 A2987 RMK A01 T02780182  RH  057%=      5-min Rain = 0
KONS 231700Z 16021G26KT 28/18 A2987 RMK A01 T02780182  RH  057%=      5-min Rain = 0
KONS 231705Z 16020G27KT 28/18 A2987 RMK A01 T02790181  RH  057%=      5-min Rain = 0
KONS 231710Z 17021G27KT 28/18 A2987 RMK A01 T02770181  RH  057%=      5-min Rain = 0
KONS 231715Z 16022G29KT 28/18 A2987 RMK A01 T02800183  RH  057%=      5-min Rain = 0
KONS 231720Z 16021G30KT 28/18 A2987 RMK A01 T02840181  RH  055%=      5-min Rain = 0
KONS 231725Z 16022G29KT 28/18 A2987 RMK A01 T02840181  RH  055%=      5-min Rain = 0
KONS 231730Z 17021G26KT 29/18 A2987 RMK A01 T02860178  RH  053%=      5-min Rain = 0
KONS 231735Z 17019G28KT 28/17 A2987 RMK A01 T02840172  RH  052%=      5-min Rain = 0
KONS 231740Z 17020G25KT 29/17 A2987 RMK A01 T02850167  RH  050%=      5-min Rain = 0
KONS 231745Z 17017G23KT 28/17 A2987 RMK A01 T02840174  RH  053%=      5-min Rain = 0
KONS 231750Z 18019G29KT 29/18 A2987 RMK A01 T02900175  RH  051%=      5-min Rain = 0
KONS 231755Z 17019G24KT 29/18 A2987 RMK A01 T02880176  RH  052%=      5-min Rain = 0
KONS 231800Z 17021G28KT 29/17 A2987 RMK A01 T02900171  RH  050%=      5-min Rain = 0
KONS 231805Z 17019G25KT 29/17 A2986 RMK A01 T02900173  RH  050%=      5-min Rain = 0
KONS 231810Z 17018G26KT 29/18 A2986 RMK A01 T02900175  RH  051%=      5-min Rain = 0
KONS 231815Z 17021G27KT 29/18 A2986 RMK A01 T02880176  RH  052%=      5-min Rain = 0
KONS 231820Z 17020G26KT 29/18 A2986 RMK A01 T02880175  RH  052%=      5-min Rain = 0
KONS 231825Z 16020G26KT 29/17 A2986 RMK A01 T02910174  RH  051%=      5-min Rain = 0
KONS 231830Z 16022G29KT 29/18 A2986 RMK A01 T02930177  RH  051%=      5-min Rain = 0
KONS 231835Z 16019G28KT 29/18 A2985 RMK A01 T02930176  RH  051%=      5-min Rain = 0
KONS 231840Z 16022G28KT 30/17 A2985 RMK A01 T02960174  RH  049%=      5-min Rain = 0
KONS 231845Z 17020G27KT 30/17 A2985 RMK A01 T02950172  RH  048%=      5-min Rain = 0
KONS 231850Z 17019G26KT 30/17 A2985 RMK A01 T03020166  RH  045%=      5-min Rain = 0
KONS 231855Z 16019G26KT 30/17 A2985 RMK A01 T03030168  RH  045%=      5-min Rain = 0
KONS 231900Z 17021G28KT 30/17 A2984 RMK A01 T02990166  RH  046%=      5-min Rain = 0
KONS 231905Z 16022G29KT 30/16 A2984 RMK A01 T02990162  RH  045%=      5-min Rain = 0
KONS 231910Z 17022G27KT 30/16 A2984 RMK A01 T03040161  RH  043%=      5-min Rain = 0
KONS 231915Z 17021G29KT 30/16 A2984 RMK A01 T03030160  RH  043%=      5-min Rain = 0
KONS 231920Z 16019G27KT 30/16 A2984 RMK A01 T03010162  RH  044%=      5-min Rain = 0
KONS 231925Z 17021G30KT 31/16 A2984 RMK A01 T03060163  RH  043%=      5-min Rain = 0
KONS 231930Z 17020G27KT 31/16 A2984 RMK A01 T03050162  RH  043%=      5-min Rain = 0
KONS 231935Z 18022G29KT 31/16 A2984 RMK A01 T03100157  RH  041%=      5-min Rain = 0
KONS 231940Z 18021G35KT 31/16 A2984 RMK A01 T03090160  RH  042%=      5-min Rain = 0
KONS 231945Z 17023G32KT 31/16 A2984 RMK A01 T03060163  RH  043%=      5-min Rain = 0
KONS 231950Z 16019G27KT 30/16 A2984 RMK A01 T03020162  RH  044%=      5-min Rain = 0
KONS 231955Z 17022G30KT 30/16 A2983 RMK A01 T03020162  RH  044%=      5-min Rain = 0
KONS 232000Z 16021G28KT 31/16 A2983 RMK A01 T03070163  RH  043%=      5-min Rain = 0
KONS 232005Z 17020G28KT 31/16 A2983 RMK A01 T03090162  RH  042%=      5-min Rain = 0
KONS 232010Z 17021G30KT 31/16 A2983 RMK A01 T03110157  RH  040%=      5-min Rain = 0
KONS 232015Z 18021G32KT 31/16 A2983 RMK A01 T03080158  RH  041%=      5-min Rain = 0
KONS 232020Z 17020G28KT 31/16 A2983 RMK A01 T03080158  RH  041%=      5-min Rain = 0
KONS 232025Z 18024G33KT 31/15 A2983 RMK A01 T03120154  RH  039%=      5-min Rain = 0
KONS 232030Z 16022G31KT 31/16 A2983 RMK A01 T03100156  RH  040%=      5-min Rain = 0
KONS 232035Z 17023G29KT 31/15 A2983 RMK A01 T03100154  RH  040%=      5-min Rain = 0
KONS 232040Z 17024G30KT 31/16 A2983 RMK A01 T03130155  RH  039%=      5-min Rain = 0
KONS 232045Z 17022G30KT 31/16 A2982 RMK A01 T03120157  RH  040%=      5-min Rain = 0
KONS 232050Z 17021G27KT 31/16 A2982 RMK A01 T03140158  RH  040%=      5-min Rain = 0
KONS 232055Z 16021G31KT 31/16 A2982 RMK A01 T03140156  RH  039%=      5-min Rain = 0
KONS 232100Z 16022G28KT 31/16 A2982 RMK A01 T03120157  RH  040%=      5-min Rain = 0
KONS 232105Z 16024G31KT 31/16 A2982 RMK A01 T03120160  RH  041%=      5-min Rain = 0
KONS 232110Z 17023G29KT 31/16 A2981 RMK A01 T03130155  RH  039%=      5-min Rain = 0
KONS 232115Z 16024G33KT 31/15 A2981 RMK A01 T03060153  RH  040%=      5-min Rain = 0
KONS 232120Z 16024G31KT 31/15 A2981 RMK A01 T03080150  RH  039%=      5-min Rain = 0
KONS 232125Z 17024G31KT 31/15 A2981 RMK A01 T03080151  RH  039%=      5-min Rain = 0
KONS 232130Z 16023G32KT 30/15 A2981 RMK A01 T03040152  RH  041%=      5-min Rain = 0
KONS 232135Z 16024G32KT 31/15 A298 RMK A01 T03060152  RH  040%=      5-min Rain = 0
KONS 232140Z 16022G29KT 31/15 A298 RMK A01 T03100150  RH  039%=      5-min Rain = 0
KONS 232145Z 16023G28KT 30/15 A298 RMK A01 T03030147  RH  040%=      5-min Rain = 0
KONS 232150Z 16023G29KT 30/15 A298 RMK A01 T02960148  RH  041%=      5-min Rain = 0
KONS 232155Z 15026G33KT 29/15 A298 RMK A01 T02920149  RH  042%=      5-min Rain = 0
KONS 232200Z 16023G28KT 29/15 A298 RMK A01 T02910147  RH  042%=      5-min Rain = 0
KONS 232205Z 16023G29KT 29/15 A2979 RMK A01 T02900150  RH  044%=      5-min Rain = 0
KONS 232210Z 15023G29KT 29/16 A298 RMK A01 T02870156  RH  046%=      5-min Rain = 0
KONS 232215Z 15023G30KT 29/16 A298 RMK A01 T02850156  RH  047%=      5-min Rain = 0
KONS 232220Z 16022G29KT 28/16 A2981 RMK A01 T02840158  RH  047%=      5-min Rain = 0
KONS 232225Z 15021G27KT 28/16 A2981 RMK A01 T02830158  RH  048%=      5-min Rain = 0
KONS 232230Z 16022G28KT 28/16 A2981 RMK A01 T02810156  RH  048%=      5-min Rain = 0
KONS 232235Z 15022G30KT 28/16 A2981 RMK A01 T02790157  RH  049%=      5-min Rain = 0
KONS 232240Z 15021G26KT 28/16 A2981 RMK A01 T02780160  RH  050%=      5-min Rain = 0
KONS 232245Z 15022G27KT 28/16 A2981 RMK A01 T02770162  RH  051%=      5-min Rain = 0
KONS 232250Z 16022G29KT 28/16 A2981 RMK A01 T02760164  RH  052%=      5-min Rain = 0
KONS 232255Z 16021G27KT 28/17 A2982 RMK A01 T02750166  RH  053%=      5-min Rain = 0
KONS 232300Z 15023G29KT 27/17 A2981 RMK A01 T02740165  RH  053%=      5-min Rain = 0
KONS 232305Z 16020G27KT 27/17 A2981 RMK A01 T02730165  RH  053%=      5-min Rain = 0
KONS 232310Z 16022G31KT 27/17 A2982 RMK A01 T02710166  RH  054%=      5-min Rain = 0
KONS 232315Z 15021G28KT 27/17 A2982 RMK A01 T02700166  RH  054%=      5-min Rain = 0
KONS 232320Z 15022G29KT 27/17 A2981 RMK A01 T02690167  RH  055%=      5-min Rain = 0
KONS 232325Z 15022G30KT 27/17 A2981 RMK A01 T02680169  RH  056%=      5-min Rain = 0
KONS 232330Z 15023G30KT 27/17 A2982 RMK A01 T02670170  RH  057%=      5-min Rain = 0
KONS 232335Z 15021G31KT 27/17 A2982 RMK A01 T02660171  RH  057%=      5-min Rain = 0
KONS 232340Z 15021G28KT 27/17 A2981 RMK A01 T02650171  RH  058%=      5-min Rain = 0
KONS 232345Z 15024G31KT 26/17 A2981 RMK A01 T02640172  RH  058%=      5-min Rain = 0
KONS 232350Z 14024G31KT 26/17 A2981 RMK A01 T02640172  RH  059%=      5-min Rain = 0
KONS 232355Z 15022G30KT 27/17 A2981 RMK A01 T02660173  RH  058%=      5-min Rain = 0
KONS 240000Z 15020G26KT 26/18 A2981 RMK A01 T02640175  RH  060%=      5-min Rain = 0
KONS 240005Z 15023G30KT 26/18 A2981 RMK A01 T02610177  RH  061%=      5-min Rain = 0
KONS 240010Z 15023G30KT 26/18 A298 RMK A01 T02600178  RH  062%=      5-min Rain = 0
KONS 240015Z 14022G30KT 26/18 A298 RMK A01 T02570179  RH  064%=      5-min Rain = 0
KONS 240020Z 14024G33KT 25/18 A298 RMK A01 T02540176  RH  064%=      5-min Rain = 0
KONS 240025Z 14018G26KT 25/18 A298 RMK A01 T02510176  RH  065%=      5-min Rain = 0
KONS 240030Z 14021G27KT 25/18 A2981 RMK A01 T02480180  RH  068%=      5-min Rain = 0
KONS 240035Z 14020G27KT 25/18 A2982 RMK A01 T02460184  RH  070%=      5-min Rain = 0
KONS 240040Z 15019G27KT 25/19 A2982 RMK A01 T02450186  RH  071%=      5-min Rain = 0
KONS 240045Z 15020KT 25/19 A2982 RMK A01 T02450185  RH  071%=      5-min Rain = 0
KONS 240050Z 15016G22KT 24/19 A2981 RMK A01 T02430185  RH  072%=      5-min Rain = 0
KONS 240055Z 14017G22KT 24/18 A2981 RMK A01 T02410184  RH  072%=      5-min Rain = 0
KONS 240100Z 14015G20KT 24/18 A2982 RMK A01 T02400182  RH  072%=      5-min Rain = 0
KONS 240105Z 14016G21KT 24/18 A2981 RMK A01 T02400182  RH  072%=      5-min Rain = 0
KONS 240110Z 14018G24KT 24/18 A298 RMK A01 T02400183  RH  072%=      5-min Rain = 0
KONS 240115Z 15017G23KT 24/19 A2981 RMK A01 T02390185  RH  074%=      5-min Rain = 0
KONS 240120Z 15019G25KT 24/19 A2982 RMK A01 T02380185  RH  074%=      5-min Rain = 0
KONS 240125Z 15022G30KT 24/19 A2982 RMK A01 T02380185  RH  074%=      5-min Rain = 0
KONS 240130Z 15021G29KT 24/19 A2982 RMK A01 T02380185  RH  074%=      5-min Rain = 0
KONS 240135Z 15024G33KT 24/19 A2982 RMK A01 T02360186  RH  075%=      5-min Rain = 0
KONS 240140Z 15018G28KT 23/19 A2982 RMK A01 T02340186  RH  076%=      5-min Rain = 0
KONS 240145Z 15018G25KT 23/19 A2982 RMK A01 T02300186  RH  078%=      5-min Rain = 0
KONS 240150Z 15019G25KT 23/18 A2983 RMK A01 T02280183  RH  078%=      5-min Rain = 0
KONS 240155Z 15021G27KT 23/18 A2982 RMK A01 T02250181  RH  078%=      5-min Rain = 0
KONS 240200Z 16021G27KT 22/18 A2983 RMK A01 T02210175  RH  077%=      5-min Rain = 0
KONS 240205Z 17021G28KT 22/17 A2986 RMK A01 T02170171  RH  077%=      5-min Rain = 0
KONS 240210Z 15027G37KT 21/15 A2985 RMK A01 T02070153  RH  073%=      5-min Rain = 0
KONS 240215Z 15023G31KT 19/14 A2984 RMK A01 T01940142  RH  074%=      5-min Rain = 0
KONS 240220Z 16022G28KT 18/14 A2985 RMK A01 T01830138  RH  076%=      5-min Rain = 0
KONS 240225Z 16023G30KT 18/13 A2986 RMK A01 T01790133  RH  076%=      5-min Rain = 0
KONS 240230Z 16022G29KT 18/13 A2986 RMK A01 T01790129  RH  074%=      5-min Rain = 0
KONS 240235Z 14020G27KT 18/13 A2987 RMK A01 T01800129  RH  074%=      5-min Rain = 0
KONS 240240Z 14018G24KT 17/13 A2986 RMK A01 T01730132  RH  078%=      5-min Rain = 0
KONS 240245Z 15021G26KT 17/13 A2986 RMK A01 T01680129  RH  079%=      5-min Rain = 0
KONS 240250Z 16019G25KT 17/13 A2986 RMK A01 T01670127  RH  079%=      5-min Rain = 0
KONS 240255Z 16020G29KT 17/12 A2986 RMK A01 T01680124  RH  077%=      5-min Rain = 0
KONS 240300Z 16022G29KT 17/12 A2987 RMK A01 T01730119  RH  072%=      5-min Rain = 0
KONS 240305Z 17017KT 17/12 A2989 RMK A01 T01720123  RH  074%=      5-min Rain = 0
KONS 240310Z 17016KT 17/12 A2989 RMK A01 T01700124  RH  076%=      5-min Rain = 0
KONS 240315Z 16015KT 17/12 A2989 RMK A01 T01700124  RH  076%=      5-min Rain = 0
KONS 240320Z 17009G15KT 17/12 A299 RMK A01 T01710122  RH  074%=      5-min Rain = 0
KONS 240325Z 17015G20KT 17/12 A2991 RMK A01 T01720119  RH  072%=      5-min Rain = 0
KONS 240330Z 17018G23KT 18/12 A2991 RMK A01 T01750118  RH  071%=      5-min Rain = 0
KONS 240335Z 17019G24KT 17/12 A2991 RMK A01 T01720121  RH  073%=      5-min Rain = 0
KONS 240340Z 16017G22KT 17/12 A299 RMK A01 T01680124  RH  077%=      5-min Rain = 0.01
KONS 240345Z 16019G25KT 17/13 A2991 RMK A01 T01660126  RH  079%=      5-min Rain = 0
KONS 240350Z 17020KT 17/13 A2992 RMK A01 T01690126  RH  077%=      5-min Rain = 0
KONS 240355Z 19018G23KT 17/13 A2993 RMK A01 T01670129  RH  080%=      5-min Rain = 0.01
KONS 240400Z 18020G26KT 16/13 A2992 RMK A01 T01630129  RH  082%=      5-min Rain = 0
KONS 240405Z 17019KT 16/13 A2992 RMK A01 T01610129  RH  083%=      5-min Rain = 0
KONS 240410Z 18017KT 16/13 A2993 RMK A01 T01590130  RH  085%=      5-min Rain = 0.01
KONS 240415Z 18015G21KT 16/13 A2994 RMK A01 T01580131  RH  086%=      5-min Rain = 0
KONS 240420Z 17017G24KT 16/13 A2995 RMK A01 T01570131  RH  086%=      5-min Rain = 0
KONS 240425Z 16018G24KT 16/13 A2993 RMK A01 T01570129  RH  085%=      5-min Rain = 0
KONS 240430Z 16018G23KT 16/13 A2992 RMK A01 T01570128  RH  085%=      5-min Rain = 0
KONS 240435Z 17019KT 16/13 A2992 RMK A01 T01560129  RH  086%=      5-min Rain = 0.01
KONS 240440Z 18017KT 16/13 A2993 RMK A01 T01550129  RH  086%=      5-min Rain = 0
KONS 240445Z 19016G22KT 15/13 A2993 RMK A01 T01530126  RH  085%=      5-min Rain = 0
KONS 240450Z 20018KT 15/12 A2994 RMK A01 T01520124  RH  084%=      5-min Rain = 0
KONS 240455Z 18020KT 15/12 A2994 RMK A01 T01520122  RH  084%=      5-min Rain = 0

Page generated in 0.0383 seconds.